الصفحة الرئيسية
METAR-TAF:

METAR-TAF

مطار :

Sandakan, ماليزيا

دائرة عرض: 05-54N, خط طول: 118-04E, ارتفاع: 12 متر

مراقبة الطقس الحالي

تاريخ ووقت الإصدار 22 دقيقة قبل الساعة 19:00UTC
ريح 6 عقدة من الشمال الشرقي, الاتجاه يتراوح بين الشمال و الشرق
درجة الحرارة 28°درجة مئوية
الرطوبة 84%
ضغط 1009 hPa
الرؤية 10 كم أو أكثر
غيوم متفرقة على ارتفاع 1500 قدم
غيوم قليلة على ارتفاع 1700 قدم, مزنة ركامية.

METAR: WBKS 141900Z 05006KT 010V080 9999 SCT015 FEW017CB 28/25 Q1009

زمن: 03:22 (19:22 UTC)

توقعات

تاريخ ووقت الإصدار 2ساعات و 22 دقيقة قبل الساعة 17:00UTC
التوقعات صالحة من14 الساعة 18 UTC إلى 15 الساعة 18 UTC
ريح 10 عقدة من الشمال الشرقي
الرؤية 10 كم أو أكثر
غيوم متفرقة على ارتفاع 1500 قدم
مؤقت
من 14 الساعة 18 UTC إلى 14 الساعة 22 UTC
الرؤية: 5000 متر
غيوم قليلة على ارتفاع 1000 قدم
غيوم قليلة على ارتفاع 1600 قدم, مزنة ركامية.
غيوم متفرقة على ارتفاع 3500 قدم
عاصفة رعدية, مطر

TAF: WBKS 141700Z 1418/1518 05010KT 9999 SCT015 TEMPO 1418/1422 5000 TSRA FEW010 FEW016CB SCT035

أرصاد الطقس والتوقعات من أكثر من 4000 مطار (تقارير الطقس للمطار METAR والتنبؤ بالطقس بالمطارTAF).

المحطات المتاحة هي النقط الصفراء والحمراء على الخريطة.

حرك المؤشر فوق النقطة لمعرفة اسم المحطة.

ثم انقر لمعرفة أرصاد وتوقعات الطقس.

لتغيير الخارطة: اضغط على الأزرار الخضراء مع رمز الصليب الأسود للتكبير. على الزر الأخضر مع شرطة للتصغير، أو على الأسهم الخضراء للخرائط المجاورة.


METAR-TAF: